createdAt,value
2018-07-16T00:00:20.243Z,18.60
2018-07-16T00:02:48.545Z,18.60
2018-07-16T00:05:16.858Z,18.50
2018-07-16T00:07:45.236Z,18.50
2018-07-16T00:10:13.529Z,18.50
2018-07-16T00:12:41.858Z,18.40
2018-07-16T00:15:10.137Z,18.40
2018-07-16T00:17:38.466Z,18.40
2018-07-16T00:20:07.358Z,18.40
2018-07-16T00:22:35.687Z,18.30
2018-07-16T00:25:04.220Z,18.30
2018-07-16T00:27:32.555Z,18.30
2018-07-16T00:30:00.843Z,18.20
2018-07-16T00:32:29.179Z,18.20
2018-07-16T00:34:57.471Z,18.20
2018-07-16T00:37:25.776Z,18.10
2018-07-16T00:39:54.169Z,18.10
2018-07-16T00:42:22.484Z,18.10
2018-07-16T00:44:50.771Z,18.00
2018-07-16T00:47:19.115Z,18.00
2018-07-16T00:49:47.399Z,18.00
2018-07-16T00:52:15.738Z,18.00
2018-07-16T00:54:44.396Z,17.90
2018-07-16T00:57:12.752Z,17.90
2018-07-16T00:59:41.092Z,17.90
2018-07-16T01:02:09.368Z,17.80
2018-07-16T01:04:37.720Z,17.80
2018-07-16T01:07:06.049Z,17.80
2018-07-16T01:09:34.386Z,17.80
2018-07-16T01:12:02.695Z,17.80
2018-07-16T01:14:31.009Z,17.70
2018-07-16T01:16:59.538Z,17.80
2018-07-16T01:19:27.875Z,17.70
2018-07-16T01:21:56.214Z,17.70
2018-07-16T01:24:24.542Z,17.70
2018-07-16T01:26:52.850Z,17.70
2018-07-16T01:29:21.316Z,17.60
2018-07-16T01:31:49.628Z,17.60
2018-07-16T01:34:17.996Z,17.50
2018-07-16T01:36:46.399Z,17.60
2018-07-16T01:39:14.735Z,17.50
2018-07-16T01:41:43.071Z,17.50
2018-07-16T01:44:11.376Z,17.50
2018-07-16T01:46:40.716Z,17.40
2018-07-16T01:49:09.105Z,17.40
2018-07-16T01:51:37.430Z,17.40
2018-07-16T01:54:05.860Z,17.40
2018-07-16T01:56:34.179Z,17.40
2018-07-16T01:59:02.618Z,17.40
2018-07-16T02:01:30.959Z,17.30
2018-07-16T02:03:59.279Z,17.30
2018-07-16T02:06:27.639Z,17.30
2018-07-16T02:08:56.019Z,17.20
2018-07-16T02:11:24.368Z,17.20
2018-07-16T02:13:52.741Z,17.20
2018-07-16T02:18:49.149Z,17.10
2018-07-16T02:21:17.480Z,17.10
2018-07-16T02:23:45.825Z,17.10
2018-07-16T02:26:14.213Z,17.00
2018-07-16T02:28:42.600Z,17.00
2018-07-16T02:31:10.953Z,17.00
2018-07-16T02:33:39.265Z,16.90
2018-07-16T02:36:07.605Z,16.90
2018-07-16T02:38:35.920Z,16.90
2018-07-16T02:41:04.220Z,16.90
2018-07-16T02:43:32.538Z,16.80
2018-07-16T02:46:00.870Z,16.80
2018-07-16T02:48:29.168Z,16.80
2018-07-16T02:50:57.599Z,16.80
2018-07-16T02:53:25.938Z,16.70
2018-07-16T02:55:54.252Z,16.70
2018-07-16T02:58:22.568Z,16.70
2018-07-16T03:00:50.903Z,16.70
2018-07-16T03:03:19.383Z,16.70
2018-07-16T03:05:47.876Z,16.70
2018-07-16T03:08:16.238Z,16.70
2018-07-16T03:10:44.565Z,16.70
2018-07-16T03:13:12.868Z,16.70
2018-07-16T03:15:41.181Z,16.60
2018-07-16T03:18:09.730Z,16.60
2018-07-16T03:20:38.016Z,16.60
2018-07-16T03:23:06.333Z,16.50
2018-07-16T03:25:34.639Z,16.50
2018-07-16T03:28:02.932Z,16.50
2018-07-16T03:30:31.268Z,16.50
2018-07-16T03:32:59.664Z,16.50
2018-07-16T03:35:27.960Z,16.50
2018-07-16T03:37:56.294Z,16.40
2018-07-16T03:40:24.859Z,16.50
2018-07-16T03:42:53.283Z,16.40
2018-07-16T03:45:21.619Z,16.40
2018-07-16T03:47:49.923Z,16.40
2018-07-16T03:50:18.248Z,16.40
2018-07-16T03:55:14.631Z,16.40
2018-07-16T03:57:42.955Z,16.40
2018-07-16T04:00:11.307Z,16.30
2018-07-16T04:02:39.669Z,16.40
2018-07-16T04:05:08.019Z,16.40
2018-07-16T04:07:36.382Z,16.40
2018-07-16T04:10:04.723Z,16.50
2018-07-16T04:12:33.040Z,16.40
2018-07-16T04:15:01.465Z,16.40
2018-07-16T04:17:29.800Z,16.40
2018-07-16T04:19:58.958Z,16.40
2018-07-16T04:22:27.270Z,16.40
2018-07-16T04:24:55.584Z,16.40
2018-07-16T04:27:24.054Z,16.40
2018-07-16T04:29:52.460Z,16.50
2018-07-16T04:32:20.839Z,16.50
2018-07-16T04:34:49.227Z,16.50
2018-07-16T04:37:17.546Z,16.50
2018-07-16T04:39:45.879Z,16.60
2018-07-16T04:42:14.236Z,16.60
2018-07-16T04:44:42.523Z,16.60
2018-07-16T04:47:10.909Z,16.70
2018-07-16T04:49:39.234Z,16.70
2018-07-16T04:54:35.767Z,16.80
2018-07-16T04:57:04.290Z,16.90
2018-07-16T04:59:32.687Z,16.90
2018-07-16T05:02:01.115Z,16.90
2018-07-16T05:04:29.451Z,16.90
2018-07-16T05:06:57.873Z,17.00
2018-07-16T05:09:26.164Z,17.00
2018-07-16T05:11:54.552Z,17.00
2018-07-16T05:14:22.876Z,17.10
2018-07-16T05:16:51.288Z,17.10
2018-07-16T05:19:19.567Z,17.20
2018-07-16T05:21:47.840Z,17.30
2018-07-16T05:24:16.123Z,17.40
2018-07-16T05:26:44.485Z,17.50
2018-07-16T05:29:12.832Z,17.60
2018-07-16T05:31:41.248Z,17.60
2018-07-16T05:34:09.523Z,17.70
2018-07-16T05:36:37.862Z,17.80
2018-07-16T05:39:06.431Z,17.80
2018-07-16T05:41:34.696Z,17.90
2018-07-16T05:44:02.978Z,17.90
2018-07-16T05:46:31.371Z,18.00
2018-07-16T05:48:59.760Z,18.00
2018-07-16T05:51:28.116Z,18.10
2018-07-16T05:53:56.416Z,18.20
2018-07-16T05:56:24.723Z,18.20
2018-07-16T05:58:53.047Z,18.30
2018-07-16T06:01:21.427Z,18.30
2018-07-16T06:03:49.781Z,18.40
2018-07-16T06:06:18.230Z,18.50
2018-07-16T06:08:46.616Z,18.60
2018-07-16T06:11:15.412Z,18.70
2018-07-16T06:13:43.683Z,18.80
2018-07-16T06:16:12.022Z,18.90
2018-07-16T06:18:40.359Z,18.90
2018-07-16T06:23:36.725Z,19.00
2018-07-16T06:26:05.034Z,19.10
2018-07-16T06:28:33.323Z,19.20
2018-07-16T06:31:01.635Z,19.30
2018-07-16T06:33:30.040Z,19.40
2018-07-16T06:35:58.336Z,19.50
2018-07-16T06:38:26.612Z,19.50
2018-07-16T06:40:55.168Z,19.70
2018-07-16T06:43:23.280Z,19.70
2018-07-16T06:45:51.731Z,19.80
2018-07-16T06:48:20.069Z,19.80
2018-07-16T06:50:48.361Z,19.90
2018-07-16T06:53:16.691Z,20.00
2018-07-16T06:55:45.157Z,20.10
2018-07-16T06:58:13.455Z,20.20
2018-07-16T07:00:41.731Z,20.30
2018-07-16T07:03:10.291Z,20.40
2018-07-16T07:05:38.960Z,20.40
2018-07-16T07:08:07.588Z,20.60
2018-07-16T07:10:37.308Z,20.70
2018-07-16T07:13:05.647Z,20.70
2018-07-16T07:15:34.019Z,20.80
2018-07-16T07:18:02.371Z,20.90
2018-07-16T07:20:30.700Z,20.90
2018-07-16T07:22:59.046Z,21.10
2018-07-16T07:25:27.760Z,21.10
2018-07-16T07:27:56.042Z,21.20
2018-07-16T07:30:24.309Z,21.30
2018-07-16T07:32:52.653Z,21.40
2018-07-16T07:35:21.001Z,21.50
2018-07-16T07:37:49.236Z,21.70
2018-07-16T07:40:17.505Z,21.80
2018-07-16T07:42:45.792Z,21.90
2018-07-16T07:45:14.068Z,21.90
2018-07-16T07:47:42.454Z,21.90
2018-07-16T07:50:10.700Z,21.90
2018-07-16T07:52:39.015Z,21.90
2018-07-16T07:55:07.895Z,21.90
2018-07-16T07:57:35.749Z,22.00
2018-07-16T08:00:05.180Z,22.20
2018-07-16T08:02:33.489Z,22.20
2018-07-16T08:05:01.898Z,22.30
2018-07-16T08:07:30.315Z,22.40
2018-07-16T08:09:58.781Z,22.50
2018-07-16T08:12:27.056Z,22.60
2018-07-16T08:14:55.406Z,22.60
2018-07-16T08:17:23.704Z,22.60
2018-07-16T08:19:51.982Z,22.60
2018-07-16T08:22:20.296Z,22.80
2018-07-16T08:24:48.600Z,22.90
2018-07-16T08:27:16.910Z,23.10
2018-07-16T08:29:45.270Z,23.20
2018-07-16T08:32:13.608Z,23.20
2018-07-16T08:37:09.955Z,23.30
2018-07-16T08:39:40.325Z,23.30
2018-07-16T08:42:08.619Z,23.40
2018-07-16T08:44:36.910Z,23.50
2018-07-16T08:47:05.211Z,23.50
2018-07-16T08:49:33.470Z,23.40
2018-07-16T08:52:01.835Z,23.50
2018-07-16T08:54:30.104Z,23.50
2018-07-16T08:56:58.392Z,23.60
2018-07-16T08:59:26.699Z,23.70
2018-07-16T09:01:54.972Z,23.60
2018-07-16T09:04:23.274Z,23.60
2018-07-16T09:06:51.592Z,23.70
2018-07-16T09:09:19.869Z,23.90
2018-07-16T09:11:48.157Z,24.00
2018-07-16T09:14:16.468Z,24.00
2018-07-16T09:16:45.734Z,24.10
2018-07-16T09:19:14.195Z,24.10
2018-07-16T09:21:42.420Z,24.20
2018-07-16T09:24:10.784Z,24.30
2018-07-16T09:26:39.085Z,24.40
2018-07-16T09:29:08.089Z,24.40
2018-07-16T09:31:36.468Z,24.50
2018-07-16T09:34:04.848Z,24.50
2018-07-16T09:36:33.165Z,24.50
2018-07-16T09:39:01.624Z,24.60
2018-07-16T09:41:29.871Z,24.70
2018-07-16T09:43:58.190Z,24.90
2018-07-16T09:46:26.492Z,25.00
2018-07-16T09:51:22.876Z,25.00
2018-07-16T09:53:51.267Z,25.10
2018-07-16T09:56:19.606Z,25.00
2018-07-16T09:58:47.883Z,25.00
2018-07-16T10:01:22.063Z,25.10
2018-07-16T10:03:50.436Z,25.20
2018-07-16T10:06:18.733Z,25.10
2018-07-16T10:08:47.161Z,25.20
2018-07-16T10:11:15.656Z,25.20
2018-07-16T10:13:43.982Z,25.20
2018-07-16T10:16:12.479Z,25.30
2018-07-16T10:18:40.837Z,25.50
2018-07-16T10:21:09.304Z,25.80
2018-07-16T10:23:37.626Z,26.00
2018-07-16T10:26:06.213Z,26.20
2018-07-16T10:28:34.761Z,26.20
2018-07-16T10:31:03.053Z,26.10
2018-07-16T10:35:59.543Z,26.00
2018-07-16T10:38:27.847Z,26.10
2018-07-16T10:40:56.137Z,26.10
2018-07-16T10:43:24.646Z,26.20
2018-07-16T10:45:52.927Z,26.30
2018-07-16T10:48:21.276Z,26.30
2018-07-16T10:50:49.875Z,26.30
2018-07-16T10:53:18.634Z,26.20
2018-07-16T10:55:46.968Z,26.20
2018-07-16T10:58:15.494Z,26.30
2018-07-16T11:00:43.792Z,26.30
2018-07-16T11:03:12.097Z,26.40
2018-07-16T11:05:40.529Z,26.60
2018-07-16T11:08:09.424Z,26.80
2018-07-16T11:10:38.127Z,26.90
2018-07-16T11:13:06.872Z,27.10
2018-07-16T11:15:35.217Z,27.10
2018-07-16T11:18:03.527Z,27.00
2018-07-16T11:20:31.903Z,26.90
2018-07-16T11:23:00.238Z,27.00
2018-07-16T11:25:29.579Z,26.80
2018-07-16T11:27:58.136Z,26.80
2018-07-16T11:30:26.422Z,26.90
2018-07-16T11:32:54.810Z,26.90
2018-07-16T11:35:23.514Z,27.20
2018-07-16T11:37:51.739Z,27.30
2018-07-16T11:40:20.088Z,27.20
2018-07-16T11:42:48.433Z,27.30
2018-07-16T11:45:16.735Z,27.50
2018-07-16T11:47:45.104Z,27.60
2018-07-16T11:50:13.455Z,27.80
2018-07-16T11:52:41.833Z,27.70
2018-07-16T11:55:10.213Z,27.50
2018-07-16T11:57:38.551Z,27.40
2018-07-16T12:00:06.864Z,27.30
2018-07-16T12:02:35.278Z,27.50
2018-07-16T12:05:03.797Z,27.50
2018-07-16T12:07:32.055Z,27.60
2018-07-16T12:10:00.798Z,27.60
2018-07-16T12:12:29.340Z,27.60
2018-07-16T12:14:57.671Z,27.70
2018-07-16T12:17:26.228Z,27.90
2018-07-16T12:19:54.542Z,27.90
2018-07-16T12:22:22.879Z,28.00
2018-07-16T12:24:51.310Z,28.00
2018-07-16T12:27:19.600Z,28.00
2018-07-16T12:29:47.974Z,28.00
2018-07-16T12:32:16.361Z,28.00
2018-07-16T12:34:44.712Z,27.90
2018-07-16T12:37:13.046Z,28.00
2018-07-16T12:39:41.378Z,28.40
2018-07-16T12:44:37.674Z,28.50
2018-07-16T12:47:06.219Z,28.70
2018-07-16T12:49:34.446Z,28.80
2018-07-16T12:52:02.750Z,29.20
2018-07-16T12:54:31.050Z,29.10
2018-07-16T12:56:59.419Z,29.00
2018-07-16T13:01:56.086Z,28.90
2018-07-16T13:04:24.582Z,29.00
2018-07-16T13:06:53.021Z,29.00
2018-07-16T13:09:21.856Z,29.20
2018-07-16T13:11:50.286Z,29.40
2018-07-16T13:14:18.671Z,29.50
2018-07-16T13:16:50.327Z,29.40
2018-07-16T13:21:46.795Z,29.80
2018-07-16T13:24:16.389Z,29.90
2018-07-16T13:26:44.811Z,29.90
2018-07-16T13:29:14.189Z,30.00
2018-07-16T13:31:42.509Z,30.10
2018-07-16T13:34:10.807Z,29.90
2018-07-16T13:36:39.133Z,29.40
2018-07-16T13:39:08.438Z,29.30
2018-07-16T13:41:36.846Z,29.10
2018-07-16T13:44:05.177Z,29.30
2018-07-16T13:46:33.767Z,29.20
2018-07-16T13:49:02.190Z,29.20
2018-07-16T13:51:30.640Z,29.20
2018-07-16T13:53:59.051Z,29.20
2018-07-16T13:56:27.388Z,29.10
2018-07-16T13:58:55.772Z,29.30
2018-07-16T14:01:24.137Z,29.40
2018-07-16T14:03:55.497Z,29.50
2018-07-16T14:06:23.749Z,29.60
2018-07-16T14:08:52.054Z,29.60
2018-07-16T14:11:20.376Z,29.50
2018-07-16T14:13:48.711Z,29.60
2018-07-16T14:16:16.992Z,29.50
2018-07-16T14:18:45.342Z,29.40
2018-07-16T14:21:13.648Z,29.40
2018-07-16T14:23:41.951Z,29.50
2018-07-16T14:26:10.266Z,29.50
2018-07-16T14:31:06.762Z,30.00
2018-07-16T14:33:35.105Z,30.20
2018-07-16T14:36:03.491Z,30.20
2018-07-16T14:38:32.452Z,29.90
2018-07-16T14:41:00.771Z,29.90
2018-07-16T14:43:29.191Z,30.10
2018-07-16T14:45:57.591Z,30.40
2018-07-16T14:48:25.916Z,30.20
2018-07-16T14:50:54.268Z,30.30
2018-07-16T14:53:22.559Z,30.10
2018-07-16T14:55:50.886Z,30.30
2018-07-16T14:58:19.206Z,30.10
2018-07-16T15:00:47.480Z,30.20
2018-07-16T15:03:15.812Z,30.10
2018-07-16T15:05:44.163Z,30.00
2018-07-16T15:08:12.537Z,30.10
2018-07-16T15:10:40.875Z,30.10
2018-07-16T15:13:09.210Z,30.10
2018-07-16T15:15:37.526Z,30.20
2018-07-16T15:18:06.099Z,30.20
2018-07-16T15:20:34.633Z,30.30
2018-07-16T15:23:02.818Z,30.50
2018-07-16T15:25:31.110Z,30.60
2018-07-16T15:27:59.427Z,30.50
2018-07-16T15:30:27.730Z,30.80
2018-07-16T15:32:56.052Z,30.70
2018-07-16T15:35:24.344Z,30.60
2018-07-16T15:37:52.693Z,30.60
2018-07-16T15:40:21.000Z,30.60
2018-07-16T15:42:50.173Z,30.50
2018-07-16T15:45:18.473Z,30.70
2018-07-16T15:47:46.786Z,30.60
2018-07-16T15:50:15.094Z,30.50
2018-07-16T15:52:43.420Z,30.70
2018-07-16T15:55:11.724Z,30.50
2018-07-16T15:57:40.077Z,30.60
2018-07-16T16:00:08.378Z,30.70
2018-07-16T16:02:36.770Z,30.50
2018-07-16T16:05:05.702Z,30.40
2018-07-16T16:07:33.998Z,30.50
2018-07-16T16:10:03.521Z,30.50
2018-07-16T16:12:31.826Z,30.60
2018-07-16T16:15:00.189Z,30.50
2018-07-16T16:17:28.514Z,30.50
2018-07-16T16:19:56.839Z,30.50
2018-07-16T16:22:25.210Z,30.80
2018-07-16T16:24:53.543Z,30.80
2018-07-16T16:27:21.887Z,30.50
2018-07-16T16:29:50.196Z,30.60
2018-07-16T16:32:18.525Z,30.50
2018-07-16T16:34:46.851Z,30.50
2018-07-16T16:37:15.179Z,30.60
2018-07-16T16:39:43.443Z,30.50
2018-07-16T16:42:11.816Z,30.50
2018-07-16T16:47:08.809Z,30.50
2018-07-16T16:49:37.107Z,30.50
2018-07-16T16:52:05.398Z,30.80
2018-07-16T16:54:33.745Z,30.70
2018-07-16T16:57:02.025Z,30.50
2018-07-16T16:59:30.525Z,30.10
2018-07-16T17:01:58.891Z,30.30
2018-07-16T17:04:27.210Z,30.50
2018-07-16T17:06:55.524Z,30.80
2018-07-16T17:09:23.840Z,30.70
2018-07-16T17:11:52.232Z,30.60
2018-07-16T17:14:20.511Z,30.40
2018-07-16T17:16:48.836Z,30.60
2018-07-16T17:19:17.242Z,30.60
2018-07-16T17:21:45.546Z,30.50
2018-07-16T17:24:13.866Z,30.80
2018-07-16T17:26:42.234Z,30.90
2018-07-16T17:29:10.546Z,30.70
2018-07-16T17:31:38.856Z,30.60
2018-07-16T17:34:07.185Z,30.40
2018-07-16T17:36:35.774Z,30.30
2018-07-16T17:39:05.288Z,29.90
2018-07-16T17:41:33.551Z,29.70
2018-07-16T17:44:01.880Z,29.70
2018-07-16T17:46:30.200Z,29.60
2018-07-16T17:48:58.508Z,29.30
2018-07-16T17:51:26.779Z,29.20
2018-07-16T17:53:55.050Z,29.10
2018-07-16T17:56:23.393Z,28.90
2018-07-16T17:58:51.759Z,29.00
2018-07-16T18:01:20.179Z,29.00
2018-07-16T18:03:48.415Z,29.10
2018-07-16T18:06:16.708Z,29.10
2018-07-16T18:08:44.988Z,29.00
2018-07-16T18:11:13.284Z,29.00
2018-07-16T18:13:41.585Z,29.00
2018-07-16T18:16:09.913Z,28.90
2018-07-16T18:18:38.224Z,28.70
2018-07-16T18:21:07.331Z,28.70
2018-07-16T18:23:35.579Z,28.90
2018-07-16T18:26:03.926Z,29.00
2018-07-16T18:28:32.317Z,29.10
2018-07-16T18:31:00.889Z,29.10
2018-07-16T18:33:29.594Z,29.00
2018-07-16T18:35:57.899Z,28.70
2018-07-16T18:38:26.217Z,28.60
2018-07-16T18:40:54.541Z,28.80
2018-07-16T18:43:22.840Z,29.00
2018-07-16T18:45:51.110Z,29.10
2018-07-16T18:48:19.484Z,29.20
2018-07-16T18:50:47.895Z,29.20
2018-07-16T18:53:16.292Z,29.20
2018-07-16T18:55:44.880Z,29.10
2018-07-16T18:58:13.167Z,28.90
2018-07-16T19:00:41.540Z,28.70
2018-07-16T19:03:09.882Z,28.50
2018-07-16T19:05:38.205Z,28.10
2018-07-16T19:08:06.506Z,27.70
2018-07-16T19:10:34.814Z,27.30
2018-07-16T19:13:03.172Z,27.10
2018-07-16T19:15:31.590Z,27.00
2018-07-16T19:17:59.965Z,26.90
2018-07-16T19:20:28.339Z,26.80
2018-07-16T19:22:56.675Z,26.70
2018-07-16T19:25:25.112Z,26.60
2018-07-16T19:27:53.561Z,26.40
2018-07-16T19:30:22.527Z,26.20
2018-07-16T19:32:50.876Z,26.10
2018-07-16T19:35:19.173Z,26.00
2018-07-16T19:37:47.506Z,25.90
2018-07-16T19:40:15.837Z,25.80
2018-07-16T19:42:44.107Z,25.80
2018-07-16T19:45:12.448Z,25.60
2018-07-16T19:47:40.768Z,25.50
2018-07-16T19:50:09.124Z,25.50
2018-07-16T19:52:39.922Z,25.40
2018-07-16T19:55:08.245Z,25.40
2018-07-16T19:57:36.480Z,25.30
2018-07-16T20:00:05.957Z,25.20
2018-07-16T20:02:34.320Z,25.10
2018-07-16T20:05:02.654Z,25.00
2018-07-16T20:07:30.932Z,24.90
2018-07-16T20:09:59.285Z,24.90
2018-07-16T20:12:34.191Z,24.80
2018-07-16T20:15:03.311Z,24.70
2018-07-16T20:17:32.198Z,24.60
2018-07-16T20:20:00.973Z,24.50
2018-07-16T20:22:29.812Z,24.50
2018-07-16T20:24:58.440Z,24.50
2018-07-16T20:27:26.943Z,24.50
2018-07-16T20:32:23.458Z,24.30
2018-07-16T20:34:51.696Z,24.20
2018-07-16T20:37:20.084Z,24.20
2018-07-16T20:39:48.592Z,24.10
2018-07-16T20:42:17.029Z,24.10
2018-07-16T20:44:45.282Z,24.10
2018-07-16T20:49:41.569Z,23.90
2018-07-16T20:52:10.083Z,23.80
2018-07-16T20:54:38.509Z,23.80
2018-07-16T20:57:06.961Z,23.80
2018-07-16T21:02:03.311Z,23.70
2018-07-16T21:04:31.620Z,23.60
2018-07-16T21:07:00.011Z,23.50
2018-07-16T21:09:28.498Z,23.50
2018-07-16T21:11:56.831Z,23.50
2018-07-16T21:14:25.169Z,23.40
2018-07-16T21:16:53.456Z,23.40
2018-07-16T21:19:21.755Z,23.30
2018-07-16T21:21:50.127Z,23.20
2018-07-16T21:24:18.404Z,23.20
2018-07-16T21:26:46.668Z,23.20
2018-07-16T21:29:14.954Z,23.10
2018-07-16T21:31:43.319Z,23.10
2018-07-16T21:34:11.596Z,23.00
2018-07-16T21:36:39.868Z,22.90
2018-07-16T21:39:08.250Z,22.80
2018-07-16T21:41:36.539Z,22.80
2018-07-16T21:44:05.026Z,22.70
2018-07-16T21:46:33.741Z,22.70
2018-07-16T21:49:02.044Z,22.70
2018-07-16T21:51:30.384Z,22.60
2018-07-16T21:53:58.693Z,22.60
2018-07-16T21:56:26.991Z,22.60
2018-07-16T21:58:55.292Z,22.60
2018-07-16T22:01:23.646Z,22.60
2018-07-16T22:03:52.016Z,22.50
2018-07-16T22:06:20.311Z,22.50
2018-07-16T22:08:48.645Z,22.40
2018-07-16T22:11:16.964Z,22.30
2018-07-16T22:13:45.241Z,22.30
2018-07-16T22:16:13.621Z,22.30
2018-07-16T22:18:41.912Z,22.30
2018-07-16T22:21:10.238Z,22.20
2018-07-16T22:23:38.560Z,22.20
2018-07-16T22:26:06.946Z,22.10
2018-07-16T22:28:35.216Z,22.10
2018-07-16T22:31:03.508Z,22.10
2018-07-16T22:33:31.826Z,22.00
2018-07-16T22:36:00.125Z,22.00
2018-07-16T22:38:28.398Z,21.90
2018-07-16T22:40:56.712Z,21.90
2018-07-16T22:43:25.055Z,21.80
2018-07-16T22:45:53.362Z,21.80
2018-07-16T22:50:49.766Z,21.70
2018-07-16T22:53:19.093Z,21.70
2018-07-16T22:55:47.394Z,21.70
2018-07-16T22:58:15.714Z,21.70
2018-07-16T23:00:44.028Z,21.70
2018-07-16T23:03:12.311Z,21.60
2018-07-16T23:05:40.632Z,21.50
2018-07-16T23:08:08.982Z,21.50
2018-07-16T23:10:37.270Z,21.50
2018-07-16T23:13:05.635Z,21.50
2018-07-16T23:15:34.048Z,21.40
2018-07-16T23:18:02.363Z,21.30
2018-07-16T23:20:30.724Z,21.30
2018-07-16T23:22:59.047Z,21.30
2018-07-16T23:27:55.404Z,21.30
2018-07-16T23:30:23.704Z,21.20
2018-07-16T23:32:52.050Z,21.20
2018-07-16T23:35:20.342Z,21.20
2018-07-16T23:37:48.677Z,21.20
2018-07-16T23:40:16.976Z,21.10
2018-07-16T23:42:45.297Z,21.00
2018-07-16T23:45:13.581Z,21.00
2018-07-16T23:47:41.919Z,21.00
2018-07-16T23:50:10.262Z,21.00
2018-07-16T23:52:38.565Z,20.90
2018-07-16T23:55:06.931Z,20.90
2018-07-16T23:57:35.237Z,20.90
